createdAt,value
2023-02-23T00:01:16.278Z,38.10
2023-02-23T00:03:44.698Z,37.95
2023-02-23T00:06:13.688Z,38.41
2023-02-23T00:08:41.808Z,37.55
2023-02-23T00:11:11.676Z,38.19
2023-02-23T00:13:40.152Z,37.62
2023-02-23T00:16:09.321Z,38.29
2023-02-23T00:18:45.639Z,38.07
2023-02-23T00:21:16.521Z,38.02
2023-02-23T00:23:45.558Z,37.88
2023-02-23T00:26:14.413Z,37.60
2023-02-23T00:28:44.763Z,38.29
2023-02-23T00:31:13.458Z,38.05
2023-02-23T00:33:43.183Z,38.18
2023-02-23T00:36:12.512Z,38.18
2023-02-23T00:38:40.777Z,37.65
2023-02-23T00:41:11.024Z,38.02
2023-02-23T00:43:47.606Z,38.15
2023-02-23T00:46:17.630Z,37.69
2023-02-23T00:48:47.479Z,37.47
2023-02-23T00:51:15.827Z,37.82
2023-02-23T00:53:44.265Z,38.11
2023-02-23T00:56:13.765Z,37.67
2023-02-23T00:58:42.421Z,38.19
2023-02-23T01:01:11.956Z,37.46
2023-02-23T01:03:41.608Z,37.64
2023-02-23T01:06:14.918Z,38.15
2023-02-23T01:08:44.296Z,37.98
2023-02-23T01:11:13.125Z,37.72
2023-02-23T01:13:44.687Z,38.08
2023-02-23T01:16:16.098Z,37.68
2023-02-23T01:18:44.795Z,37.55
2023-02-23T01:21:17.983Z,37.90
2023-02-23T01:23:46.386Z,38.15
2023-02-23T01:26:19.198Z,37.35
2023-02-23T01:28:50.415Z,37.83
2023-02-23T01:31:19.714Z,37.93
2023-02-23T01:33:47.984Z,37.51
2023-02-23T01:36:18.737Z,37.40
2023-02-23T01:38:46.929Z,37.81
2023-02-23T01:41:15.470Z,37.41
2023-02-23T01:44:00.742Z,38.01
2023-02-23T01:46:30.245Z,37.72
2023-02-23T01:48:58.628Z,37.57
2023-02-23T01:51:29.121Z,38.01
2023-02-23T01:54:01.229Z,38.00
2023-02-23T01:56:31.018Z,37.44
2023-02-23T01:58:59.548Z,37.44
2023-02-23T02:01:29.792Z,37.33
2023-02-23T02:03:59.345Z,37.68
2023-02-23T02:06:30.054Z,37.25
2023-02-23T02:09:00.838Z,37.29
2023-02-23T02:11:36.358Z,37.35
2023-02-23T02:14:09.184Z,37.40
2023-02-23T02:16:48.021Z,37.64
2023-02-23T02:19:54.577Z,37.68
2023-02-23T02:22:48.342Z,37.63
2023-02-23T02:25:43.321Z,37.93
2023-02-23T02:28:32.947Z,37.38
2023-02-23T02:31:28.229Z,37.31
2023-02-23T02:34:03.351Z,37.44
2023-02-23T02:37:13.165Z,37.48
2023-02-23T02:39:46.813Z,37.38
2023-02-23T02:42:20.609Z,37.63
2023-02-23T02:44:52.332Z,37.09
2023-02-23T02:47:24.120Z,37.73
2023-02-23T02:49:53.598Z,37.24
2023-02-23T02:52:25.829Z,37.07
2023-02-23T02:54:54.933Z,37.77
2023-02-23T02:57:25.743Z,37.47
2023-02-23T03:00:11.411Z,37.71
2023-02-23T03:02:58.980Z,37.10
2023-02-23T03:05:46.417Z,37.48
2023-02-23T03:08:37.633Z,37.44
2023-02-23T03:11:24.493Z,36.83
2023-02-23T03:14:20.556Z,37.22
2023-02-23T03:17:10.060Z,37.02
2023-02-23T03:19:57.495Z,37.14
2023-02-23T03:22:46.671Z,36.94
2023-02-23T03:25:35.436Z,37.47
2023-02-23T03:28:28.601Z,37.13
2023-02-23T03:31:21.523Z,37.02
2023-02-23T03:34:13.392Z,37.42
2023-02-23T03:37:02.476Z,36.79
2023-02-23T03:39:51.880Z,37.22
2023-02-23T03:42:39.734Z,36.85
2023-02-23T03:45:27.270Z,36.97
2023-02-23T03:48:13.156Z,37.11
2023-02-23T03:51:01.057Z,37.09
2023-02-23T03:53:48.635Z,37.19
2023-02-23T03:56:34.522Z,36.72
2023-02-23T03:59:21.996Z,36.85
2023-02-23T04:02:07.717Z,36.68
2023-02-23T04:04:53.608Z,36.73
2023-02-23T04:07:39.018Z,37.25
2023-02-23T04:10:26.495Z,36.70
2023-02-23T04:13:14.944Z,36.64
2023-02-23T04:15:46.408Z,36.87
2023-02-23T04:18:15.790Z,37.37
2023-02-23T04:20:44.030Z,37.08
2023-02-23T04:23:12.603Z,36.97
2023-02-23T04:25:40.825Z,37.35
2023-02-23T04:28:09.660Z,37.24
2023-02-23T04:30:38.356Z,36.67
2023-02-23T04:33:08.035Z,37.31
2023-02-23T04:35:36.398Z,37.26
2023-02-23T04:38:04.956Z,36.57
2023-02-23T04:40:33.343Z,36.78
2023-02-23T04:43:01.687Z,37.15
2023-02-23T04:45:29.865Z,37.16
2023-02-23T04:47:57.914Z,36.59
2023-02-23T04:50:27.423Z,36.49
2023-02-23T04:52:55.443Z,36.87
2023-02-23T04:55:24.656Z,37.22
2023-02-23T04:57:53.037Z,36.84
2023-02-23T05:00:21.419Z,36.69
2023-02-23T05:02:50.676Z,36.58
2023-02-23T05:05:19.048Z,36.52
2023-02-23T05:07:48.534Z,36.42
2023-02-23T05:10:16.837Z,37.23
2023-02-23T05:12:44.919Z,37.20
2023-02-23T05:15:13.145Z,36.70
2023-02-23T05:17:42.390Z,37.00
2023-02-23T05:20:11.830Z,37.15
2023-02-23T05:22:39.991Z,36.79
2023-02-23T05:25:12.023Z,36.88
2023-02-23T05:27:40.299Z,37.07
2023-02-23T05:30:10.055Z,36.45
2023-02-23T05:32:38.195Z,37.16
2023-02-23T05:35:07.131Z,36.41
2023-02-23T05:37:35.220Z,36.50
2023-02-23T05:40:03.403Z,36.44
2023-02-23T05:42:32.856Z,36.90
2023-02-23T05:45:01.020Z,36.84
2023-02-23T05:47:29.116Z,36.46
2023-02-23T05:49:57.145Z,36.65
2023-02-23T05:52:25.724Z,37.27
2023-02-23T05:54:53.825Z,36.55
2023-02-23T05:57:22.116Z,36.95
2023-02-23T05:59:51.562Z,37.17
2023-02-23T06:02:19.717Z,37.29
2023-02-23T06:04:47.797Z,36.54
2023-02-23T06:07:15.956Z,36.77
2023-02-23T06:09:44.677Z,36.46
2023-02-23T06:12:12.817Z,37.17
2023-02-23T06:14:40.892Z,37.15
2023-02-23T06:17:10.389Z,36.90
2023-02-23T06:19:38.596Z,36.69
2023-02-23T06:22:06.673Z,37.22
2023-02-23T06:24:35.132Z,36.76
2023-02-23T06:27:03.251Z,36.56
2023-02-23T06:29:31.341Z,36.95
2023-02-23T06:32:01.129Z,36.60
2023-02-23T06:34:30.947Z,37.12
2023-02-23T06:37:00.650Z,37.13
2023-02-23T06:39:28.703Z,36.84
2023-02-23T06:41:56.829Z,36.87
2023-02-23T06:44:25.168Z,37.10
2023-02-23T06:46:53.563Z,36.84
2023-02-23T06:49:21.732Z,37.61
2023-02-23T06:51:51.188Z,37.05
2023-02-23T06:54:19.275Z,37.05
2023-02-23T06:56:47.423Z,37.45
2023-02-23T06:59:15.629Z,37.56
2023-02-23T07:01:44.854Z,36.95
2023-02-23T07:04:14.913Z,37.25
2023-02-23T07:06:44.768Z,37.00
2023-02-23T07:09:15.533Z,37.07
2023-02-23T07:11:44.881Z,36.85
2023-02-23T07:14:21.541Z,36.91
2023-02-23T07:16:54.405Z,36.84
2023-02-23T07:19:23.409Z,37.43
2023-02-23T07:21:51.566Z,37.13
2023-02-23T07:24:21.998Z,37.31
2023-02-23T07:26:50.172Z,37.56
2023-02-23T07:29:18.208Z,37.12
2023-02-23T07:31:46.424Z,37.35
2023-02-23T07:34:14.582Z,37.01
2023-02-23T07:36:42.631Z,37.35
2023-02-23T07:39:10.664Z,37.20
2023-02-23T07:41:40.156Z,37.16
2023-02-23T07:44:17.436Z,37.14
2023-02-23T07:46:46.516Z,36.75
2023-02-23T07:49:15.040Z,36.78
2023-02-23T07:51:43.184Z,36.85
2023-02-23T07:54:11.263Z,37.14
2023-02-23T07:56:40.791Z,37.55
2023-02-23T07:59:08.918Z,36.82
2023-02-23T08:01:37.115Z,37.52
2023-02-23T08:04:05.668Z,37.10
2023-02-23T08:06:33.849Z,37.51
2023-02-23T08:09:02.489Z,36.96
2023-02-23T08:11:30.529Z,36.81
2023-02-23T08:14:01.127Z,37.35
2023-02-23T08:16:29.409Z,36.76
2023-02-23T08:18:58.331Z,37.10
2023-02-23T08:21:26.574Z,37.13
2023-02-23T08:23:55.541Z,37.09
2023-02-23T08:26:24.319Z,36.91
2023-02-23T08:28:52.624Z,36.90
2023-02-23T08:31:24.348Z,37.17
2023-02-23T08:33:52.995Z,37.50
2023-02-23T08:36:21.368Z,36.76
2023-02-23T08:38:49.638Z,37.23
2023-02-23T08:41:18.003Z,37.12
2023-02-23T08:43:46.343Z,37.47
2023-02-23T08:46:14.534Z,36.72
2023-02-23T08:48:44.152Z,36.93
2023-02-23T08:51:12.348Z,36.73
2023-02-23T08:53:40.430Z,37.33
2023-02-23T08:56:09.295Z,37.07
2023-02-23T08:58:37.618Z,37.39
2023-02-23T09:01:06.135Z,36.50
2023-02-23T09:03:38.233Z,36.48
2023-02-23T09:06:10.078Z,37.16
2023-02-23T09:08:39.250Z,36.52
2023-02-23T09:11:07.314Z,37.10
2023-02-23T09:13:36.176Z,36.74
2023-02-23T09:16:05.009Z,37.14
2023-02-23T09:18:33.195Z,37.10
2023-02-23T09:21:06.959Z,37.25
2023-02-23T09:23:36.762Z,36.66
2023-02-23T09:26:05.140Z,37.25
2023-02-23T09:28:33.992Z,37.12
2023-02-23T09:31:07.046Z,36.85
2023-02-23T09:33:35.261Z,37.33
2023-02-23T09:36:06.168Z,36.78
2023-02-23T09:38:34.278Z,37.60
2023-02-23T09:41:03.712Z,37.46
2023-02-23T09:43:33.533Z,37.15
2023-02-23T09:46:06.042Z,36.97
2023-02-23T09:48:34.272Z,37.17
2023-02-23T09:51:02.360Z,37.77
2023-02-23T09:53:36.457Z,37.11
2023-02-23T09:56:10.665Z,37.53
2023-02-23T09:58:38.786Z,37.67
2023-02-23T10:01:24.732Z,37.18
2023-02-23T10:03:55.556Z,37.31
2023-02-23T10:06:23.736Z,37.09
2023-02-23T10:08:58.144Z,37.48
2023-02-23T10:11:29.471Z,37.28
2023-02-23T10:14:03.188Z,37.70
2023-02-23T10:16:36.590Z,37.65
2023-02-23T10:19:07.139Z,37.17
2023-02-23T10:21:37.073Z,37.11
2023-02-23T10:24:06.538Z,37.48
2023-02-23T10:26:40.224Z,37.58
2023-02-23T10:29:11.497Z,37.02
2023-02-23T10:31:42.647Z,37.72
2023-02-23T10:34:14.157Z,37.78
2023-02-23T10:36:44.319Z,37.24
2023-02-23T10:39:12.952Z,37.74
2023-02-23T10:41:42.493Z,37.69
2023-02-23T10:44:17.347Z,37.31
2023-02-23T10:46:45.693Z,37.20
2023-02-23T10:49:16.646Z,37.21
2023-02-23T10:51:44.741Z,37.74
2023-02-23T10:54:38.885Z,37.63
2023-02-23T10:57:08.865Z,37.82
2023-02-23T10:59:36.924Z,37.40
2023-02-23T11:02:23.332Z,38.12
2023-02-23T11:04:53.139Z,37.90
2023-02-23T11:07:24.235Z,38.17
2023-02-23T11:09:52.889Z,38.39
2023-02-23T11:12:24.215Z,38.05
2023-02-23T11:14:53.052Z,38.14
2023-02-23T11:17:27.741Z,38.48
2023-02-23T11:19:59.895Z,37.98
2023-02-23T11:22:28.072Z,38.04
2023-02-23T11:24:56.245Z,37.97
2023-02-23T11:27:27.260Z,38.71
2023-02-23T11:29:56.877Z,38.15
2023-02-23T11:32:28.939Z,38.37
2023-02-23T11:35:13.703Z,38.59
2023-02-23T11:37:41.876Z,38.24
2023-02-23T11:40:20.229Z,38.27
2023-02-23T11:42:54.697Z,38.30
2023-02-23T11:45:23.623Z,38.99
2023-02-23T11:47:52.652Z,38.85
2023-02-23T11:50:25.527Z,38.61
2023-02-23T11:52:56.772Z,38.87
2023-02-23T11:55:25.565Z,38.94
2023-02-23T11:57:56.898Z,38.65
2023-02-23T12:00:27.428Z,38.78
2023-02-23T12:02:58.619Z,39.05
2023-02-23T12:05:27.648Z,39.05
2023-02-23T12:07:59.771Z,39.13
2023-02-23T12:10:29.187Z,39.49
2023-02-23T12:13:04.596Z,38.99
2023-02-23T12:15:37.501Z,39.26
2023-02-23T12:18:08.434Z,39.39
2023-02-23T12:20:39.178Z,39.60
2023-02-23T12:23:09.175Z,39.34
2023-02-23T12:25:40.632Z,38.93
2023-02-23T12:28:19.247Z,38.87
2023-02-23T12:30:49.748Z,39.41
2023-02-23T12:33:20.207Z,39.23
2023-02-23T12:35:51.760Z,39.41
2023-02-23T12:38:27.921Z,39.07
2023-02-23T12:40:59.959Z,38.99
2023-02-23T12:43:33.609Z,38.90
2023-02-23T12:46:08.513Z,38.80
2023-02-23T12:48:39.737Z,39.01
2023-02-23T12:51:12.644Z,38.94
2023-02-23T12:53:42.113Z,38.70
2023-02-23T12:56:20.862Z,38.82
2023-02-23T12:58:52.110Z,39.05
2023-02-23T13:01:22.710Z,39.26
2023-02-23T13:04:01.143Z,39.13
2023-02-23T13:06:36.897Z,38.94
2023-02-23T13:09:11.395Z,37.85
2023-02-23T13:11:53.883Z,38.74
2023-02-23T13:14:26.666Z,38.51
2023-02-23T13:16:56.586Z,38.24
2023-02-23T13:19:26.472Z,38.40
2023-02-23T13:21:56.292Z,38.28
2023-02-23T13:24:26.106Z,38.15
2023-02-23T13:26:56.830Z,38.30
2023-02-23T13:29:31.879Z,38.59
2023-02-23T13:34:50.034Z,38.41
2023-02-23T13:37:20.664Z,38.24
2023-02-23T13:39:54.203Z,38.32
2023-02-23T13:42:28.241Z,38.60
2023-02-23T13:45:02.236Z,38.60
2023-02-23T13:47:35.982Z,38.35
2023-02-23T13:50:06.405Z,39.08
2023-02-23T13:52:39.754Z,38.99
2023-02-23T13:55:49.926Z,39.18
2023-02-23T13:58:19.488Z,38.66
2023-02-23T14:00:56.465Z,38.99
2023-02-23T14:03:25.662Z,39.07
2023-02-23T14:05:56.662Z,39.04
2023-02-23T14:08:32.444Z,39.38
2023-02-23T14:11:00.601Z,38.67
2023-02-23T14:13:31.025Z,38.91
2023-02-23T14:16:18.453Z,39.03
2023-02-23T14:19:08.237Z,38.96
2023-02-23T14:21:38.251Z,38.54
2023-02-23T14:24:20.075Z,38.75
2023-02-23T14:27:40.440Z,39.26
2023-02-23T14:30:25.411Z,39.19
2023-02-23T14:32:54.968Z,38.58
2023-02-23T14:35:45.146Z,38.68
2023-02-23T14:38:18.398Z,39.06
2023-02-23T14:40:49.011Z,38.50
2023-02-23T14:43:48.225Z,38.40
2023-02-23T14:46:20.288Z,39.20
2023-02-23T14:48:59.801Z,38.48
2023-02-23T14:51:42.529Z,38.53
2023-02-23T14:54:16.361Z,38.42
2023-02-23T14:56:48.020Z,38.38
2023-02-23T14:59:20.995Z,38.99
2023-02-23T15:01:49.265Z,39.06
2023-02-23T15:04:20.887Z,38.88
2023-02-23T15:06:49.103Z,38.64
2023-02-23T15:09:19.327Z,38.41
2023-02-23T15:11:49.992Z,39.03
2023-02-23T15:14:27.302Z,38.66
2023-02-23T15:16:57.027Z,38.99
2023-02-23T15:19:26.486Z,39.04
2023-02-23T15:21:55.258Z,38.31
2023-02-23T15:24:25.855Z,39.05
2023-02-23T15:26:53.998Z,38.45
2023-02-23T15:29:22.890Z,39.05
2023-02-23T15:31:52.852Z,38.89
2023-02-23T15:34:21.979Z,38.37
2023-02-23T15:36:53.504Z,38.98
2023-02-23T15:39:34.386Z,38.47
2023-02-23T15:42:02.972Z,38.43
2023-02-23T15:44:43.607Z,39.24
2023-02-23T15:47:17.919Z,38.73
2023-02-23T15:49:46.124Z,38.85
2023-02-23T15:52:18.619Z,39.27
2023-02-23T15:54:48.982Z,39.12
2023-02-23T15:57:20.543Z,39.42
2023-02-23T15:59:49.129Z,39.42
2023-02-23T16:02:19.411Z,38.91
2023-02-23T16:04:49.943Z,39.05
2023-02-23T16:07:20.616Z,39.23
2023-02-23T16:09:53.122Z,39.09
2023-02-23T16:12:23.007Z,39.03
2023-02-23T16:14:54.016Z,38.53
2023-02-23T16:17:27.093Z,38.72
2023-02-23T16:19:56.603Z,38.86
2023-02-23T16:22:27.691Z,38.38
2023-02-23T16:25:00.879Z,38.75
2023-02-23T16:27:29.739Z,38.85
2023-02-23T16:30:00.526Z,38.79
2023-02-23T16:32:34.983Z,38.73
2023-02-23T16:35:03.966Z,38.51
2023-02-23T16:37:33.456Z,38.75
2023-02-23T16:40:01.923Z,38.80
2023-02-23T16:42:31.650Z,38.80
2023-02-23T16:45:00.255Z,37.96
2023-02-23T16:47:36.578Z,38.72
2023-02-23T16:50:20.147Z,38.37
2023-02-23T16:52:53.626Z,38.14
2023-02-23T16:55:26.163Z,37.99
2023-02-23T16:57:55.771Z,38.04
2023-02-23T17:00:26.559Z,37.79
2023-02-23T17:02:55.770Z,37.80
2023-02-23T17:05:24.716Z,37.96
2023-02-23T17:07:54.373Z,37.97
2023-02-23T17:10:26.976Z,38.15
2023-02-23T17:12:55.708Z,38.05
2023-02-23T17:15:24.956Z,37.74
2023-02-23T17:17:56.213Z,37.81
2023-02-23T17:20:26.143Z,38.06
2023-02-23T17:22:56.016Z,38.06
2023-02-23T17:25:26.697Z,37.65
2023-02-23T17:27:54.846Z,37.72
2023-02-23T17:30:23.698Z,37.82
2023-02-23T17:32:52.310Z,38.19
2023-02-23T17:35:20.646Z,38.14
2023-02-23T17:37:48.786Z,38.01
2023-02-23T17:40:26.144Z,38.48
2023-02-23T17:42:54.335Z,38.16
2023-02-23T17:45:22.676Z,37.64
2023-02-23T17:47:50.897Z,37.67
2023-02-23T17:50:20.038Z,37.91
2023-02-23T17:52:48.251Z,37.70
2023-02-23T17:55:16.353Z,38.09
2023-02-23T17:57:46.105Z,37.85
2023-02-23T18:00:15.471Z,38.42
2023-02-23T18:02:44.429Z,37.97
2023-02-23T18:05:13.488Z,38.33
2023-02-23T18:07:41.605Z,38.11
2023-02-23T18:10:11.103Z,37.68
2023-02-23T18:12:39.363Z,37.74
2023-02-23T18:15:09.554Z,38.03
2023-02-23T18:17:37.691Z,38.28
2023-02-23T18:20:07.136Z,38.04
2023-02-23T18:22:35.297Z,38.50
2023-02-23T18:25:03.415Z,38.50
2023-02-23T18:27:31.524Z,38.33
2023-02-23T18:29:59.605Z,38.37
2023-02-23T18:32:29.349Z,38.44
2023-02-23T18:34:57.572Z,38.59
2023-02-23T18:37:28.853Z,38.34
2023-02-23T18:39:59.353Z,38.03
2023-02-23T18:42:27.670Z,38.05
2023-02-23T18:44:55.765Z,38.92
2023-02-23T18:47:24.376Z,38.59
2023-02-23T18:49:53.863Z,38.28
2023-02-23T18:52:21.953Z,38.66
2023-02-23T18:54:50.206Z,38.93
2023-02-23T18:57:18.349Z,38.45
2023-02-23T18:59:47.676Z,38.50
2023-02-23T19:02:15.728Z,39.19
2023-02-23T19:04:43.866Z,38.88
2023-02-23T19:07:13.337Z,38.85
2023-02-23T19:09:41.449Z,38.79
2023-02-23T19:12:11.448Z,38.52
2023-02-23T19:14:49.211Z,38.73
2023-02-23T19:17:17.708Z,39.46
2023-02-23T19:19:45.893Z,39.22
2023-02-23T19:22:15.427Z,38.78
2023-02-23T19:24:43.490Z,39.31
2023-02-23T19:27:11.629Z,38.74
2023-02-23T19:29:39.947Z,39.18
2023-02-23T19:32:08.824Z,38.65
2023-02-23T19:34:37.105Z,38.92
2023-02-23T19:37:05.275Z,39.15
2023-02-23T19:39:35.298Z,38.81
2023-02-23T19:42:03.397Z,39.12
2023-02-23T19:44:31.540Z,38.61
2023-02-23T19:46:59.620Z,38.60
2023-02-23T19:49:27.750Z,38.51
2023-02-23T19:51:57.899Z,38.76
2023-02-23T19:54:28.749Z,38.72
2023-02-23T19:56:58.280Z,38.93
2023-02-23T19:59:28.671Z,39.24
2023-02-23T20:01:56.898Z,38.69
2023-02-23T20:04:25.030Z,39.10
2023-02-23T20:06:53.207Z,38.29
2023-02-23T20:09:21.419Z,39.11
2023-02-23T20:11:49.562Z,38.98
2023-02-23T20:14:18.965Z,38.55
2023-02-23T20:16:47.083Z,38.70
2023-02-23T20:19:15.220Z,38.95
2023-02-23T20:21:43.627Z,39.00
2023-02-23T20:24:12.827Z,38.89
2023-02-23T20:26:40.987Z,38.86
2023-02-23T20:29:11.714Z,39.25
2023-02-23T20:31:44.939Z,39.13
2023-02-23T20:34:13.412Z,39.31
2023-02-23T20:36:41.625Z,38.95
2023-02-23T20:39:10.682Z,38.85
2023-02-23T20:41:43.466Z,38.98
2023-02-23T20:44:11.836Z,38.84
2023-02-23T20:46:41.348Z,39.32
2023-02-23T20:49:11.090Z,39.39
2023-02-23T20:51:39.822Z,39.25
2023-02-23T20:54:08.341Z,39.32
2023-02-23T20:56:36.422Z,39.47
2023-02-23T20:59:04.633Z,39.25
2023-02-23T21:01:32.871Z,39.32
2023-02-23T21:04:02.498Z,39.32
2023-02-23T21:06:31.160Z,39.18
2023-02-23T21:09:04.608Z,38.93
2023-02-23T21:11:32.999Z,38.71
2023-02-23T21:14:01.080Z,39.00
2023-02-23T21:16:32.457Z,38.81
2023-02-23T21:19:05.552Z,38.69
2023-02-23T21:21:34.085Z,39.19
2023-02-23T21:24:02.221Z,39.07
2023-02-23T21:26:30.583Z,38.90
2023-02-23T21:28:58.849Z,39.17
2023-02-23T21:31:27.003Z,39.32
2023-02-23T21:33:55.420Z,39.00
2023-02-23T21:36:24.921Z,39.46
2023-02-23T21:38:53.109Z,39.46
2023-02-23T21:41:21.492Z,39.79
2023-02-23T21:43:53.521Z,39.64
2023-02-23T21:46:23.213Z,39.69
2023-02-23T21:48:51.297Z,39.73
2023-02-23T21:51:20.015Z,40.10
2023-02-23T21:53:49.658Z,40.29
2023-02-23T21:56:18.885Z,39.79
2023-02-23T21:58:48.446Z,40.16
2023-02-23T22:01:17.272Z,39.82
2023-02-23T22:03:47.762Z,40.06
2023-02-23T22:06:16.048Z,39.80
2023-02-23T22:08:44.913Z,40.23
2023-02-23T22:11:17.322Z,40.20
2023-02-23T22:13:45.851Z,39.98
2023-02-23T22:16:14.625Z,39.68
2023-02-23T22:18:42.795Z,39.84
2023-02-23T22:21:11.726Z,39.93
2023-02-23T22:23:40.102Z,39.87
2023-02-23T22:26:09.084Z,39.77
2023-02-23T22:28:38.705Z,39.97
2023-02-23T22:31:08.012Z,40.03
2023-02-23T22:33:36.388Z,39.87
2023-02-23T22:36:06.815Z,39.48
2023-02-23T22:38:35.011Z,39.87
2023-02-23T22:41:05.141Z,40.11
2023-02-23T22:43:34.355Z,39.56
2023-02-23T22:46:03.922Z,40.07
2023-02-23T22:48:32.047Z,39.61
2023-02-23T22:51:00.114Z,39.71
2023-02-23T22:53:28.478Z,39.46
2023-02-23T22:55:56.649Z,39.64
2023-02-23T22:58:26.478Z,39.55
2023-02-23T23:01:04.196Z,39.45
2023-02-23T23:03:35.794Z,40.02
2023-02-23T23:06:04.764Z,39.81
2023-02-23T23:08:36.485Z,39.55
2023-02-23T23:11:09.490Z,39.69
2023-02-23T23:13:40.389Z,39.95
2023-02-23T23:16:16.802Z,39.83
2023-02-23T23:18:54.522Z,39.83
2023-02-23T23:21:24.492Z,39.88
2023-02-23T23:23:53.485Z,39.82
2023-02-23T23:26:22.037Z,39.16
2023-02-23T23:28:51.144Z,39.53
2023-02-23T23:31:22.530Z,39.95
2023-02-23T23:33:52.789Z,39.34
2023-02-23T23:36:22.119Z,39.18
2023-02-23T23:38:50.524Z,39.70
2023-02-23T23:41:18.977Z,39.66
2023-02-23T23:43:47.865Z,39.56
2023-02-23T23:46:17.634Z,39.50
2023-02-23T23:48:45.978Z,39.78
2023-02-23T23:51:44.824Z,39.66
2023-02-23T23:54:13.888Z,39.41
2023-02-23T23:56:43.666Z,39.28
2023-02-23T23:59:15.559Z,39.08
